sensor_id;sensor_type;location;lat;lon;timestamp;pressure;altitude;pressure_sealevel;temperature;humidity
73003;BME280;61184;54.356;-8.550;2022-07-18T00:00:41;101510.62;;;27.34;32.48
73003;BME280;61184;54.356;-8.550;2022-07-18T00:03:07;101511.19;;;27.29;32.57
73003;BME280;61184;54.356;-8.550;2022-07-18T00:05:33;101512.18;;;27.33;32.52
73003;BME280;61184;54.356;-8.550;2022-07-18T00:07:58;101507.94;;;27.08;32.54
73003;BME280;61184;54.356;-8.550;2022-07-18T00:10:24;101505.12;;;27.32;32.49
73003;BME280;61184;54.356;-8.550;2022-07-18T00:12:49;101507.30;;;27.33;32.50
73003;BME280;61184;54.356;-8.550;2022-07-18T00:15:15;101506.54;;;27.20;32.68
73003;BME280;61184;54.356;-8.550;2022-07-18T00:17:40;101497.46;;;27.33;32.51
73003;BME280;61184;54.356;-8.550;2022-07-18T00:20:08;101495.71;;;27.26;32.60
73003;BME280;61184;54.356;-8.550;2022-07-18T00:22:31;101494.92;;;27.23;32.63
73003;BME280;61184;54.356;-8.550;2022-07-18T00:24:56;101494.61;;;27.27;32.58
73003;BME280;61184;54.356;-8.550;2022-07-18T00:27:22;101491.10;;;27.24;32.60
73003;BME280;61184;54.356;-8.550;2022-07-18T00:29:47;101491.39;;;27.17;32.68
73003;BME280;61184;54.356;-8.550;2022-07-18T00:32:12;101490.68;;;27.11;32.78
73003;BME280;61184;54.356;-8.550;2022-07-18T00:34:38;101490.48;;;27.20;32.66
73003;BME280;61184;54.356;-8.550;2022-07-18T00:37:03;101483.33;;;27.20;32.64
73003;BME280;61184;54.356;-8.550;2022-07-18T00:39:29;101481.22;;;27.32;32.49
73003;BME280;61184;54.356;-8.550;2022-07-18T00:41:54;101483.42;;;27.13;32.76
73003;BME280;61184;54.356;-8.550;2022-07-18T00:44:21;101480.51;;;27.16;32.71
73003;BME280;61184;54.356;-8.550;2022-07-18T00:46:45;101477.20;;;27.20;32.64
73003;BME280;61184;54.356;-8.550;2022-07-18T00:49:10;101478.92;;;27.48;32.57
73003;BME280;61184;54.356;-8.550;2022-07-18T00:51:36;101480.57;;;27.39;32.71
73003;BME280;61184;54.356;-8.550;2022-07-18T00:54:01;101478.21;;;27.24;32.56
73003;BME280;61184;54.356;-8.550;2022-07-18T00:56:27;101475.31;;;27.08;32.42
73003;BME280;61184;54.356;-8.550;2022-07-18T00:58:52;101477.41;;;27.12;32.68
73003;BME280;61184;54.356;-8.550;2022-07-18T01:01:17;101477.92;;;27.20;32.59
73003;BME280;61184;54.356;-8.550;2022-07-18T01:03:43;101475.03;;;27.48;32.56
73003;BME280;61184;54.356;-8.550;2022-07-18T01:06:09;101476.08;;;26.98;32.89
73003;BME280;61184;54.356;-8.550;2022-07-18T01:08:34;101475.07;;;27.24;32.50
73003;BME280;61184;54.356;-8.550;2022-07-18T01:10:59;101474.80;;;27.08;32.75
73003;BME280;61184;54.356;-8.550;2022-07-18T01:13:24;101471.23;;;27.32;32.35
73003;BME280;61184;54.356;-8.550;2022-07-18T01:15:50;101466.88;;;27.00;32.48
73003;BME280;61184;54.356;-8.550;2022-07-18T01:18:15;101465.84;;;27.36;32.29
73003;BME280;61184;54.356;-8.550;2022-07-18T01:20:41;101463.32;;;27.29;32.43
73003;BME280;61184;54.356;-8.550;2022-07-18T01:23:06;101463.66;;;27.53;32.40
73003;BME280;61184;54.356;-8.550;2022-07-18T01:25:31;101464.81;;;27.04;32.69
73003;BME280;61184;54.356;-8.550;2022-07-18T01:27:57;101466.71;;;27.15;32.59
73003;BME280;61184;54.356;-8.550;2022-07-18T01:30:22;101463.36;;;27.31;32.35
73003;BME280;61184;54.356;-8.550;2022-07-18T01:32:56;101463.14;;;27.07;32.32
73003;BME280;61184;54.356;-8.550;2022-07-18T01:35:13;101459.64;;;27.20;32.51
73003;BME280;61184;54.356;-8.550;2022-07-18T01:37:39;101456.13;;;26.95;32.49
73003;BME280;61184;54.356;-8.550;2022-07-18T01:40:07;101454.93;;;27.09;32.60
73003;BME280;61184;54.356;-8.550;2022-07-18T01:42:29;101455.92;;;27.31;32.34
73003;BME280;61184;54.356;-8.550;2022-07-18T01:44:54;101453.91;;;27.42;32.15
73003;BME280;61184;54.356;-8.550;2022-07-18T01:47:20;101451.48;;;27.25;32.35
73003;BME280;61184;54.356;-8.550;2022-07-18T01:49:45;101449.21;;;27.63;32.19
73003;BME280;61184;54.356;-8.550;2022-07-18T01:52:11;101449.67;;;27.45;32.38
73003;BME280;61184;54.356;-8.550;2022-07-18T01:54:37;101448.11;;;27.33;32.25
73003;BME280;61184;54.356;-8.550;2022-07-18T01:57:05;101452.05;;;27.16;32.51
73003;BME280;61184;54.356;-8.550;2022-07-18T01:59:28;101450.95;;;27.04;32.62
73003;BME280;61184;54.356;-8.550;2022-07-18T02:01:52;101448.97;;;27.32;32.26
73003;BME280;61184;54.356;-8.550;2022-07-18T02:04:18;101447.98;;;27.27;32.32
73003;BME280;61184;54.356;-8.550;2022-07-18T02:06:43;101446.42;;;27.27;32.31
73003;BME280;61184;54.356;-8.550;2022-07-18T02:09:10;101448.80;;;27.04;32.60
73003;BME280;61184;54.356;-8.550;2022-07-18T02:11:34;101445.86;;;27.15;32.45
73003;BME280;61184;54.356;-8.550;2022-07-18T02:14:00;101441.24;;;27.11;32.48
73003;BME280;61184;54.356;-8.550;2022-07-18T02:16:24;101441.78;;;27.19;32.39
73003;BME280;61184;54.356;-8.550;2022-07-18T02:18:50;101443.32;;;27.14;32.47
73003;BME280;61184;54.356;-8.550;2022-07-18T02:21:15;101441.42;;;27.40;32.39
73003;BME280;61184;54.356;-8.550;2022-07-18T02:23:41;101438.41;;;27.14;32.44
73003;BME280;61184;54.356;-8.550;2022-07-18T02:26:06;101436.01;;;27.36;32.45
73003;BME280;61184;54.356;-8.550;2022-07-18T02:28:32;101432.93;;;27.07;32.51
73003;BME280;61184;54.356;-8.550;2022-07-18T02:30:56;101427.65;;;27.38;32.41
73003;BME280;61184;54.356;-8.550;2022-07-18T02:33:22;101425.09;;;27.11;32.43
73003;BME280;61184;54.356;-8.550;2022-07-18T02:35:47;101422.10;;;27.17;32.36
73003;BME280;61184;54.356;-8.550;2022-07-18T02:38:12;101417.61;;;27.08;32.46
73003;BME280;61184;54.356;-8.550;2022-07-18T02:40:39;101415.92;;;27.20;32.33
73003;BME280;61184;54.356;-8.550;2022-07-18T02:43:03;101419.36;;;26.94;32.65
73003;BME280;61184;54.356;-8.550;2022-07-18T02:45:29;101418.98;;;26.98;32.59
73003;BME280;61184;54.356;-8.550;2022-07-18T02:47:54;101415.44;;;27.03;32.51
73003;BME280;61184;54.356;-8.550;2022-07-18T02:50:19;101413.75;;;27.32;32.47
73003;BME280;61184;54.356;-8.550;2022-07-18T02:52:45;101414.75;;;27.10;32.45
73003;BME280;61184;54.356;-8.550;2022-07-18T02:55:11;101415.82;;;27.34;32.44
73003;BME280;61184;54.356;-8.550;2022-07-18T02:57:36;101414.86;;;26.98;32.57
73003;BME280;61184;54.356;-8.550;2022-07-18T03:00:02;101416.58;;;26.92;32.65
73003;BME280;61184;54.356;-8.550;2022-07-18T03:02:28;101421.64;;;27.00;32.53
73003;BME280;61184;54.356;-8.550;2022-07-18T03:04:52;101420.33;;;27.05;32.45
73003;BME280;61184;54.356;-8.550;2022-07-18T03:07:17;101423.64;;;26.96;32.56
73003;BME280;61184;54.356;-8.550;2022-07-18T03:09:42;101419.80;;;26.92;32.63
73003;BME280;61184;54.356;-8.550;2022-07-18T03:12:09;101423.15;;;27.14;32.65
73003;BME280;61184;54.356;-8.550;2022-07-18T03:14:33;101425.80;;;26.96;32.57
73003;BME280;61184;54.356;-8.550;2022-07-18T03:16:59;101427.05;;;27.15;32.63
73003;BME280;61184;54.356;-8.550;2022-07-18T03:19:24;101428.78;;;27.01;32.48
73003;BME280;61184;54.356;-8.550;2022-07-18T03:21:49;101426.36;;;26.97;32.54
73003;BME280;61184;54.356;-8.550;2022-07-18T03:24:15;101424.67;;;27.14;32.62
73003;BME280;61184;54.356;-8.550;2022-07-18T03:26:40;101424.71;;;27.14;32.62
73003;BME280;61184;54.356;-8.550;2022-07-18T03:29:06;101424.28;;;27.12;32.62
73003;BME280;61184;54.356;-8.550;2022-07-18T03:31:31;101424.28;;;27.40;32.58
73003;BME280;61184;54.356;-8.550;2022-07-18T03:33:56;101425.88;;;27.04;32.73
73003;BME280;61184;54.356;-8.550;2022-07-18T03:36:21;101426.23;;;27.21;32.50
73003;BME280;61184;54.356;-8.550;2022-07-18T03:38:47;101426.23;;;27.13;32.60
73003;BME280;61184;54.356;-8.550;2022-07-18T03:41:13;101420.20;;;26.82;32.67
73003;BME280;61184;54.356;-8.550;2022-07-18T03:43:38;101421.28;;;26.82;32.67
73003;BME280;61184;54.356;-8.550;2022-07-18T03:46:03;101420.53;;;26.82;32.66
73003;BME280;61184;54.356;-8.550;2022-07-18T03:48:29;101418.55;;;26.74;32.77
73003;BME280;61184;54.356;-8.550;2022-07-18T03:50:54;101416.72;;;26.95;32.77
73003;BME280;61184;54.356;-8.550;2022-07-18T03:53:19;101416.34;;;26.84;32.62
73003;BME280;61184;54.356;-8.550;2022-07-18T03:55:45;101416.65;;;27.04;32.66
73003;BME280;61184;54.356;-8.550;2022-07-18T03:58:10;101416.28;;;26.93;32.49
73003;BME280;61184;54.356;-8.550;2022-07-18T04:00:36;101413.64;;;26.92;32.79
73003;BME280;61184;54.356;-8.550;2022-07-18T04:03:01;101412.63;;;26.66;32.80
73003;BME280;61184;54.356;-8.550;2022-07-18T04:05:32;101412.93;;;26.97;32.74
73003;BME280;61184;54.356;-8.550;2022-07-18T04:07:52;101412.23;;;27.03;32.64
73003;BME280;61184;54.356;-8.550;2022-07-18T04:10:17;101414.56;;;26.70;32.75
73003;BME280;61184;54.356;-8.550;2022-07-18T04:12:47;101413.86;;;27.00;32.67
73003;BME280;61184;54.356;-8.550;2022-07-18T04:15:09;101417.61;;;26.98;32.69
73003;BME280;61184;54.356;-8.550;2022-07-18T04:17:34;101417.86;;;27.04;32.59
73003;BME280;61184;54.356;-8.550;2022-07-18T04:19:59;101412.58;;;26.90;32.76
73003;BME280;61184;54.356;-8.550;2022-07-18T04:22:24;101406.41;;;26.68;32.74
73003;BME280;61184;54.356;-8.550;2022-07-18T04:24:50;101408.57;;;26.82;32.54
73003;BME280;61184;54.356;-8.550;2022-07-18T04:27:15;101405.73;;;26.95;32.65
73003;BME280;61184;54.356;-8.550;2022-07-18T04:29:41;101404.20;;;26.81;32.84
73003;BME280;61184;54.356;-8.550;2022-07-18T04:32:06;101401.61;;;26.66;32.71
73003;BME280;61184;54.356;-8.550;2022-07-18T04:34:32;101398.81;;;26.86;32.76
73003;BME280;61184;54.356;-8.550;2022-07-18T04:36:57;101401.02;;;27.19;32.63
73003;BME280;61184;54.356;-8.550;2022-07-18T04:39:22;101398.72;;;26.83;32.78
73003;BME280;61184;54.356;-8.550;2022-07-18T04:41:48;101397.27;;;26.80;32.81
73003;BME280;61184;54.356;-8.550;2022-07-18T04:44:13;101399.07;;;26.78;32.83
73003;BME280;61184;54.356;-8.550;2022-07-18T04:46:39;101398.19;;;26.56;32.82
73003;BME280;61184;54.356;-8.550;2022-07-18T04:49:04;101399.05;;;26.55;32.84
73003;BME280;61184;54.356;-8.550;2022-07-18T04:51:29;101400.11;;;26.59;32.76
73003;BME280;61184;54.356;-8.550;2022-07-18T04:53:55;101398.83;;;26.83;32.75
73003;BME280;61184;54.356;-8.550;2022-07-18T04:56:21;101397.38;;;27.00;32.84
73003;BME280;61184;54.356;-8.550;2022-07-18T04:58:46;101395.31;;;26.88;32.68
73003;BME280;61184;54.356;-8.550;2022-07-18T05:01:11;101394.91;;;26.80;32.79
73003;BME280;61184;54.356;-8.550;2022-07-18T05:03:36;101396.71;;;26.79;32.77
73003;BME280;61184;54.356;-8.550;2022-07-18T05:06:02;101395.75;;;26.45;32.90
73003;BME280;61184;54.356;-8.550;2022-07-18T05:08:27;101396.88;;;26.50;32.85
73003;BME280;61184;54.356;-8.550;2022-07-18T05:10:53;101398.05;;;26.75;32.81
73003;BME280;61184;54.356;-8.550;2022-07-18T05:13:18;101396.87;;;26.60;32.69
73003;BME280;61184;54.356;-8.550;2022-07-18T05:15:44;101393.94;;;26.65;32.92
73003;BME280;61184;54.356;-8.550;2022-07-18T05:18:09;101393.12;;;26.84;32.66
73003;BME280;61184;54.356;-8.550;2022-07-18T05:20:35;101392.44;;;26.77;32.75
73003;BME280;61184;54.356;-8.550;2022-07-18T05:23:00;101392.43;;;26.62;32.63
73003;BME280;61184;54.356;-8.550;2022-07-18T05:25:26;101389.03;;;26.79;32.74
73003;BME280;61184;54.356;-8.550;2022-07-18T05:27:51;101387.18;;;26.89;32.57
73003;BME280;61184;54.356;-8.550;2022-07-18T05:30:16;101386.67;;;26.80;32.69
73003;BME280;61184;54.356;-8.550;2022-07-18T05:32:42;101388.03;;;26.49;32.78
73003;BME280;61184;54.356;-8.550;2022-07-18T05:35:09;101385.01;;;26.65;32.88
73003;BME280;61184;54.356;-8.550;2022-07-18T05:37:32;101388.36;;;26.81;32.67
73003;BME280;61184;54.356;-8.550;2022-07-18T05:39:58;101385.66;;;26.68;32.83
73003;BME280;61184;54.356;-8.550;2022-07-18T05:42:23;101383.57;;;26.64;32.85
73003;BME280;61184;54.356;-8.550;2022-07-18T05:44:48;101384.54;;;26.71;32.78
73003;BME280;61184;54.356;-8.550;2022-07-18T05:47:14;101384.85;;;26.55;32.68
73003;BME280;61184;54.356;-8.550;2022-07-18T05:49:39;101386.65;;;26.49;32.78
73003;BME280;61184;54.356;-8.550;2022-07-18T05:52:06;101387.36;;;26.67;32.84
73003;BME280;61184;54.356;-8.550;2022-07-18T05:54:31;101389.19;;;26.61;32.89
73003;BME280;61184;54.356;-8.550;2022-07-18T05:56:55;101393.13;;;26.48;32.78
73003;BME280;61184;54.356;-8.550;2022-07-18T05:59:22;101391.06;;;26.96;32.76
73003;BME280;61184;54.356;-8.550;2022-07-18T06:01:47;101390.94;;;26.61;32.88
73003;BME280;61184;54.356;-8.550;2022-07-18T06:04:12;101396.68;;;26.77;33.00
73003;BME280;61184;54.356;-8.550;2022-07-18T06:06:37;101397.27;;;26.90;32.81
73003;BME280;61184;54.356;-8.550;2022-07-18T06:09:04;101393.71;;;26.65;32.81
73003;BME280;61184;54.356;-8.550;2022-07-18T06:11:28;101391.37;;;26.57;32.93
73003;BME280;61184;54.356;-8.550;2022-07-18T06:13:53;101394.35;;;26.72;32.75
73003;BME280;61184;54.356;-8.550;2022-07-18T06:16:19;101398.53;;;26.58;32.91
73003;BME280;61184;54.356;-8.550;2022-07-18T06:18:44;101400.21;;;26.71;32.75
73003;BME280;61184;54.356;-8.550;2022-07-18T06:21:10;101401.72;;;26.81;32.59
73003;BME280;61184;54.356;-8.550;2022-07-18T06:23:35;101400.80;;;26.70;32.75
73003;BME280;61184;54.356;-8.550;2022-07-18T06:26:01;101403.49;;;26.97;32.71
73003;BME280;61184;54.356;-8.550;2022-07-18T06:28:27;101397.92;;;26.78;32.93
73003;BME280;61184;54.356;-8.550;2022-07-18T06:30:53;101394.89;;;26.46;32.74
73003;BME280;61184;54.356;-8.550;2022-07-18T06:33:17;101390.19;;;26.57;32.92
73003;BME280;61184;54.356;-8.550;2022-07-18T06:35:42;101391.88;;;26.77;32.93
73003;BME280;61184;54.356;-8.550;2022-07-18T06:38:07;101390.63;;;26.65;32.81
73003;BME280;61184;54.356;-8.550;2022-07-18T06:40:33;101388.51;;;26.63;32.83
73003;BME280;61184;54.356;-8.550;2022-07-18T06:42:59;101388.03;;;26.66;32.81
73003;BME280;61184;54.356;-8.550;2022-07-18T06:45:24;101385.53;;;26.69;32.75
73003;BME280;61184;54.356;-8.550;2022-07-18T06:47:49;101383.63;;;26.66;32.76
73003;BME280;61184;54.356;-8.550;2022-07-18T06:50:15;101384.62;;;26.42;32.76
73003;BME280;61184;54.356;-8.550;2022-07-18T06:52:41;101384.74;;;26.62;32.83
73003;BME280;61184;54.356;-8.550;2022-07-18T06:55:06;101386.77;;;26.37;32.82
73003;BME280;61184;54.356;-8.550;2022-07-18T06:57:31;101385.48;;;26.68;32.76
73003;BME280;61184;54.356;-8.550;2022-07-18T06:59:56;101386.69;;;26.96;32.69
73003;BME280;61184;54.356;-8.550;2022-07-18T07:02:21;101383.85;;;26.61;32.80
73003;BME280;61184;54.356;-8.550;2022-07-18T07:04:47;101383.10;;;26.71;32.68
73003;BME280;61184;54.356;-8.550;2022-07-18T07:07:12;101382.40;;;26.63;32.78
73003;BME280;61184;54.356;-8.550;2022-07-18T07:09:37;101384.82;;;26.57;32.87
73003;BME280;61184;54.356;-8.550;2022-07-18T07:12:03;101383.46;;;26.58;32.86
73003;BME280;61184;54.356;-8.550;2022-07-18T07:14:29;101381.15;;;26.30;32.91
73003;BME280;61184;54.356;-8.550;2022-07-18T07:16:54;101378.08;;;26.57;32.89
73003;BME280;61184;54.356;-8.550;2022-07-18T07:19:20;101373.53;;;26.48;32.99
73003;BME280;61184;54.356;-8.550;2022-07-18T07:21:45;101372.60;;;26.76;32.93
73003;BME280;61184;54.356;-8.550;2022-07-18T07:24:10;101366.03;;;26.53;32.93
73003;BME280;61184;54.356;-8.550;2022-07-18T07:26:35;101365.92;;;26.78;32.96
73003;BME280;61184;54.356;-8.550;2022-07-18T07:29:01;101365.84;;;26.56;32.92
73003;BME280;61184;54.356;-8.550;2022-07-18T07:31:28;101363.80;;;26.28;32.96
73003;BME280;61184;54.356;-8.550;2022-07-18T07:33:52;101360.48;;;26.57;32.89
73003;BME280;61184;54.356;-8.550;2022-07-18T07:36:17;101355.61;;;26.55;32.91
73003;BME280;61184;54.356;-8.550;2022-07-18T07:38:42;101353.29;;;26.61;32.82
73003;BME280;61184;54.356;-8.550;2022-07-18T07:41:08;101355.71;;;26.58;32.85
73003;BME280;61184;54.356;-8.550;2022-07-18T07:43:33;101358.98;;;26.60;32.83
73003;BME280;61184;54.356;-8.550;2022-07-18T07:45:59;101363.29;;;26.82;32.87
73003;BME280;61184;54.356;-8.550;2022-07-18T07:48:24;101365.13;;;26.55;32.88
73003;BME280;61184;54.356;-8.550;2022-07-18T07:50:49;101365.99;;;26.34;32.88
73003;BME280;61184;54.356;-8.550;2022-07-18T07:53:15;101365.78;;;26.33;32.91
73003;BME280;61184;54.356;-8.550;2022-07-18T07:55:40;101364.72;;;26.71;33.04
73003;BME280;61184;54.356;-8.550;2022-07-18T07:58:06;101367.68;;;26.24;33.15
73003;BME280;61184;54.356;-8.550;2022-07-18T08:00:32;101372.49;;;26.45;33.20
73003;BME280;61184;54.356;-8.550;2022-07-18T08:02:58;101369.03;;;26.70;33.17
73003;BME280;61184;54.356;-8.550;2022-07-18T08:05:22;101367.69;;;26.46;33.23
73003;BME280;61184;54.356;-8.550;2022-07-18T08:07:47;101367.01;;;26.53;33.11
73003;BME280;61184;54.356;-8.550;2022-07-18T08:10:13;101365.23;;;26.60;33.06
73003;BME280;61184;54.356;-8.550;2022-07-18T08:12:38;101365.66;;;26.63;33.05
73003;BME280;61184;54.356;-8.550;2022-07-18T08:15:04;101363.69;;;26.50;33.23
73003;BME280;61184;54.356;-8.550;2022-07-18T08:17:29;101359.07;;;26.77;33.22
73003;BME280;61184;54.356;-8.550;2022-07-18T08:19:54;101354.92;;;26.81;33.20
73003;BME280;61184;54.356;-8.550;2022-07-18T08:22:19;101352.95;;;26.41;33.41
73003;BME280;61184;54.356;-8.550;2022-07-18T08:24:45;101350.89;;;26.70;33.05
73003;BME280;61184;54.356;-8.550;2022-07-18T08:27:10;101348.15;;;26.52;33.25
73003;BME280;61184;54.356;-8.550;2022-07-18T08:29:35;101347.31;;;26.41;33.10
73003;BME280;61184;54.356;-8.550;2022-07-18T08:32:03;101346.52;;;26.37;33.20
73003;BME280;61184;54.356;-8.550;2022-07-18T08:34:27;101351.40;;;26.36;33.22
73003;BME280;61184;54.356;-8.550;2022-07-18T08:36:52;101341.88;;;26.41;33.15
73003;BME280;61184;54.356;-8.550;2022-07-18T08:39:17;101349.36;;;26.73;33.05
73003;BME280;61184;54.356;-8.550;2022-07-18T08:41:44;101350.36;;;26.66;33.19
73003;BME280;61184;54.356;-8.550;2022-07-18T08:44:09;101348.23;;;26.63;33.21
73003;BME280;61184;54.356;-8.550;2022-07-18T08:46:35;101346.15;;;26.64;33.27
73003;BME280;61184;54.356;-8.550;2022-07-18T08:48:59;101348.95;;;26.58;33.33
73003;BME280;61184;54.356;-8.550;2022-07-18T08:51:24;101343.32;;;26.52;33.12
73003;BME280;61184;54.356;-8.550;2022-07-18T08:53:50;101341.13;;;26.82;33.07
73003;BME280;61184;54.356;-8.550;2022-07-18T08:56:15;101335.44;;;26.46;33.23
73003;BME280;61184;54.356;-8.550;2022-07-18T08:58:40;101331.57;;;26.99;33.17
73003;BME280;61184;54.356;-8.550;2022-07-18T09:01:06;101328.44;;;26.80;33.13
73003;BME280;61184;54.356;-8.550;2022-07-18T09:03:32;101333.21;;;26.83;33.11
73003;BME280;61184;54.356;-8.550;2022-07-18T09:06:03;101335.84;;;27.10;33.07
73003;BME280;61184;54.356;-8.550;2022-07-18T09:08:22;101329.88;;;26.85;33.09
73003;BME280;61184;54.356;-8.550;2022-07-18T09:10:49;101331.21;;;26.91;33.03
73003;BME280;61184;54.356;-8.550;2022-07-18T09:13:13;101327.20;;;27.00;32.95
73003;BME280;61184;54.356;-8.550;2022-07-18T09:18:04;101319.72;;;27.02;33.02
73003;BME280;61184;54.356;-8.550;2022-07-18T09:20:31;101312.23;;;27.00;33.06
73003;BME280;61184;54.356;-8.550;2022-07-18T09:22:56;101310.24;;;26.70;33.19
73003;BME280;61184;54.356;-8.550;2022-07-18T09:25:22;101307.02;;;26.70;33.21
73003;BME280;61184;54.356;-8.550;2022-07-18T09:27:48;101304.17;;;26.73;33.22
73003;BME280;61184;54.356;-8.550;2022-07-18T09:30:16;101307.45;;;26.95;33.32
73003;BME280;61184;54.356;-8.550;2022-07-18T09:32:39;101305.82;;;26.95;33.35
73003;BME280;61184;54.356;-8.550;2022-07-18T09:35:05;101307.38;;;27.03;33.26
73003;BME280;61184;54.356;-8.550;2022-07-18T09:37:28;101309.26;;;26.92;33.52
73003;BME280;61184;54.356;-8.550;2022-07-18T09:39:54;101308.63;;;26.86;33.74
73003;BME280;61184;54.356;-8.550;2022-07-18T09:42:19;101303.26;;;26.65;33.97
73003;BME280;61184;54.356;-8.550;2022-07-18T09:44:56;101303.73;;;26.87;34.27
73003;BME280;61184;54.356;-8.550;2022-07-18T09:47:09;101295.69;;;26.57;34.53
73003;BME280;61184;54.356;-8.550;2022-07-18T09:49:35;101287.52;;;26.74;34.41
73003;BME280;61184;54.356;-8.550;2022-07-18T09:52:05;101281.55;;;26.83;34.27
73003;BME280;61184;54.356;-8.550;2022-07-18T09:54:37;101279.49;;;27.44;33.74
73003;BME280;61184;54.356;-8.550;2022-07-18T09:56:51;101272.80;;;27.40;34.21
73003;BME280;61184;54.356;-8.550;2022-07-18T09:59:16;101266.88;;;27.05;33.97
73003;BME280;61184;54.356;-8.550;2022-07-18T10:01:42;101270.87;;;27.13;34.00
73003;BME280;61184;54.356;-8.550;2022-07-18T10:04:07;101269.49;;;27.35;33.91
73003;BME280;61184;54.356;-8.550;2022-07-18T10:06:33;101266.27;;;27.41;33.56
73003;BME280;61184;54.356;-8.550;2022-07-18T10:08:58;101265.17;;;27.38;33.95
73003;BME280;61184;54.356;-8.550;2022-07-18T10:11:24;101261.36;;;27.47;33.77
73003;BME280;61184;54.356;-8.550;2022-07-18T10:13:49;101264.23;;;27.23;33.85
73003;BME280;61184;54.356;-8.550;2022-07-18T10:16:15;101263.69;;;27.57;33.66
73003;BME280;61184;54.356;-8.550;2022-07-18T10:18:40;101267.63;;;27.23;33.74
73003;BME280;61184;54.356;-8.550;2022-07-18T10:21:12;101272.54;;;27.19;33.83
73003;BME280;61184;54.356;-8.550;2022-07-18T10:23:33;101267.93;;;27.41;33.58
73003;BME280;61184;54.356;-8.550;2022-07-18T10:26:06;101276.67;;;27.66;33.57
73003;BME280;61184;54.356;-8.550;2022-07-18T10:28:22;101272.57;;;27.71;33.55
73003;BME280;61184;54.356;-8.550;2022-07-18T10:30:47;101279.10;;;27.60;33.32
73003;BME280;61184;54.356;-8.550;2022-07-18T10:40:29;101258.93;;;27.52;33.49
73003;BME280;61184;54.356;-8.550;2022-07-18T10:45:27;101249.11;;;27.54;33.41
73003;BME280;61184;54.356;-8.550;2022-07-18T10:47:45;101247.57;;;27.21;33.56
73003;BME280;61184;54.356;-8.550;2022-07-18T10:50:10;101233.36;;;27.35;33.64
73003;BME280;61184;54.356;-8.550;2022-07-18T10:57:29;101199.40;;;27.63;33.37
73003;BME280;61184;54.356;-8.550;2022-07-18T11:00:02;101208.81;;;27.65;33.36
73003;BME280;61184;54.356;-8.550;2022-07-18T11:02:17;101225.37;;;27.60;33.45
73003;BME280;61184;54.356;-8.550;2022-07-18T11:04:43;101229.23;;;27.66;33.38
73003;BME280;61184;54.356;-8.550;2022-07-18T11:07:12;101235.28;;;27.76;33.25
73003;BME280;61184;54.356;-8.550;2022-07-18T11:09:38;101233.83;;;27.87;33.11
73003;BME280;61184;54.356;-8.550;2022-07-18T11:12:17;101229.37;;;27.96;33.04
73003;BME280;61184;54.356;-8.550;2022-07-18T11:19:17;101220.54;;;27.69;33.12
73003;BME280;61184;54.356;-8.550;2022-07-18T11:21:41;101215.20;;;28.05;33.31
73003;BME280;61184;54.356;-8.550;2022-07-18T11:24:08;101214.23;;;28.00;33.03
73003;BME280;61184;54.356;-8.550;2022-07-18T11:26:32;101211.00;;;27.73;33.41
73003;BME280;61184;54.356;-8.550;2022-07-18T11:28:58;101210.47;;;27.80;33.34
73003;BME280;61184;54.356;-8.550;2022-07-18T11:31:22;101201.46;;;27.93;33.19
73003;BME280;61184;54.356;-8.550;2022-07-18T11:33:49;101201.29;;;28.04;33.07
73003;BME280;61184;54.356;-8.550;2022-07-18T11:36:14;101205.82;;;26.90;34.62
73003;BME280;61184;54.356;-8.550;2022-07-18T11:38:45;101209.29;;;27.66;33.78
73003;BME280;61184;54.356;-8.550;2022-07-18T11:41:04;101206.45;;;27.31;34.91
73003;BME280;61184;54.356;-8.550;2022-07-18T11:43:29;101207.52;;;27.50;34.54
73003;BME280;61184;54.356;-8.550;2022-07-18T11:46:03;101210.02;;;27.96;34.70
73003;BME280;61184;54.356;-8.550;2022-07-18T11:48:21;101214.83;;;27.68;35.41
73003;BME280;61184;54.356;-8.550;2022-07-18T11:50:45;101224.28;;;27.54;35.16
73003;BME280;61184;54.356;-8.550;2022-07-18T11:53:13;101238.29;;;27.80;34.81
73003;BME280;61184;54.356;-8.550;2022-07-18T11:55:37;101257.78;;;28.14;34.94
73003;BME280;61184;54.356;-8.550;2022-07-18T11:58:07;101275.07;;;27.73;35.08
73003;BME280;61184;54.356;-8.550;2022-07-18T12:00:27;101279.67;;;27.83;35.10
73003;BME280;61184;54.356;-8.550;2022-07-18T12:03:06;101276.50;;;28.10;35.46
73003;BME280;61184;54.356;-8.550;2022-07-18T12:05:17;101275.57;;;27.39;35.61
73003;BME280;61184;54.356;-8.550;2022-07-18T12:07:43;101268.36;;;27.03;36.81
73003;BME280;61184;54.356;-8.550;2022-07-18T12:10:17;101257.10;;;26.68;37.16
73003;BME280;61184;54.356;-8.550;2022-07-18T12:12:36;101251.20;;;27.77;34.10
73003;BME280;61184;54.356;-8.550;2022-07-18T12:15:01;101237.06;;;27.80;32.85
73003;BME280;61184;54.356;-8.550;2022-07-18T12:17:24;101220.68;;;28.08;33.43
73003;BME280;61184;54.356;-8.550;2022-07-18T12:19:50;101219.47;;;28.22;33.91
73003;BME280;61184;54.356;-8.550;2022-07-18T12:22:15;101226.75;;;27.97;34.82
73003;BME280;61184;54.356;-8.550;2022-07-18T12:24:49;101231.20;;;27.86;35.24
73003;BME280;61184;54.356;-8.550;2022-07-18T12:27:11;101222.23;;;27.24;35.69
73003;BME280;61184;54.356;-8.550;2022-07-18T12:29:31;101214.16;;;28.00;33.90
73003;BME280;61184;54.356;-8.550;2022-07-18T12:34:22;101198.63;;;28.21;35.33
73003;BME280;61184;54.356;-8.550;2022-07-18T12:36:51;101198.38;;;28.20;35.27
73003;BME280;61184;54.356;-8.550;2022-07-18T12:39:12;101208.96;;;28.14;35.50
73003;BME280;61184;54.356;-8.550;2022-07-18T12:41:37;101211.93;;;27.96;35.10
73003;BME280;61184;54.356;-8.550;2022-07-18T12:44:03;101214.05;;;27.98;35.01
73003;BME280;61184;54.356;-8.550;2022-07-18T12:46:28;101207.90;;;28.23;34.73
73003;BME280;61184;54.356;-8.550;2022-07-18T12:48:53;101197.12;;;28.04;34.98
73003;BME280;61184;54.356;-8.550;2022-07-18T12:51:18;101202.40;;;28.13;35.06
73003;BME280;61184;54.356;-8.550;2022-07-18T12:53:44;101209.68;;;28.13;35.18